Time;durP1;ratioP1;P1;durP2;ratioP2;P2;SDS_P1;SDS_P2;PMS_P1;PMS_P2;Temp;Humidity;BMP_temperature;BMP_pressure;BME280_temperature;BME280_humidity;BME280_pressure;Samples;Min_cycle;Max_cycle;Signal;HPM_P1;HPM_P2
2021/03/07 00:02:24;;;;;;;0.10;0.00;;;;;;;21.88;43.92;100609.03;5052330;28;20056;-64
2021/03/07 00:04:50;;;;;;;0.03;0.00;;;;;;;21.87;43.51;100613.66;5052155;28;20036;-63
2021/03/07 00:07:15;;;;;;;0.28;0.10;;;;;;;21.87;43.31;100618.28;5052193;28;20028;-64
2021/03/07 00:09:41;;;;;;;0.10;0.00;;;;;;;21.84;43.14;100602.25;5052267;28;20025;-63
2021/03/07 00:12:06;;;;;;;0.00;0.00;;;;;;;21.83;43.14;100601.38;5051894;28;20111;-63
2021/03/07 00:14:31;;;;;;;0.00;0.00;;;;;;;21.82;42.83;100596.97;5052181;28;20017;-63
2021/03/07 00:16:57;;;;;;;0.00;0.00;;;;;;;21.82;43.12;100594.22;5052019;28;20394;-63
2021/03/07 00:19:22;;;;;;;0.28;0.00;;;;;;;21.82;42.90;100596.13;5052127;28;20028;-63
2021/03/07 00:21:47;;;;;;;0.00;0.00;;;;;;;21.78;43.35;100605.78;5051970;28;20043;-63
2021/03/07 00:24:13;;;;;;;0.20;0.00;;;;;;;21.78;44.03;100598.41;5052045;28;20017;-63
2021/03/07 00:26:38;;;;;;;0.00;0.00;;;;;;;21.78;43.95;100590.22;5052113;28;20033;-63
2021/03/07 00:29:04;;;;;;;0.10;0.08;;;;;;;21.74;44.61;100597.13;5051831;28;20049;-63
2021/03/07 00:31:29;;;;;;;0.00;0.00;;;;;;;21.72;44.91;100582.81;5052043;28;20464;-63
2021/03/07 00:33:54;;;;;;;0.00;0.00;;;;;;;21.76;45.05;100595.03;5051790;28;20032;-63
2021/03/07 00:36:20;;;;;;;0.13;0.10;;;;;;;21.76;45.77;100592.31;5051944;28;20079;-63
2021/03/07 00:38:45;;;;;;;0.00;0.00;;;;;;;21.75;45.52;100597.97;5051990;28;20032;-63
2021/03/07 00:41:11;;;;;;;0.38;0.10;;;;;;;21.73;46.14;100606.38;5051303;28;20028;-63
2021/03/07 00:43:36;;;;;;;0.30;0.30;;;;;;;21.73;46.18;100602.81;5051661;28;20041;-63
2021/03/07 00:46:01;;;;;;;0.10;0.00;;;;;;;21.71;46.63;100613.94;5051747;28;20464;-63
2021/03/07 00:48:27;;;;;;;0.40;0.08;;;;;;;21.70;46.45;100590.38;5051941;28;20032;-63
2021/03/07 00:50:52;;;;;;;0.17;0.10;;;;;;;21.68;46.43;100576.06;5051730;28;20107;-63
2021/03/07 00:53:17;;;;;;;0.10;0.00;;;;;;;21.69;46.53;100577.75;5051755;28;20025;-63
2021/03/07 00:55:42;;;;;;;0.28;0.10;;;;;;;21.70;46.38;100571.22;5051874;28;20060;-63
2021/03/07 00:58:08;;;;;;;0.10;0.03;;;;;;;21.66;46.55;100556.22;5052018;28;20029;-62
2021/03/07 01:00:33;;;;;;;0.10;0.10;;;;;;;21.65;46.30;100554.53;5051720;28;20037;-63
2021/03/07 01:02:59;;;;;;;0.30;0.00;;;;;;;21.65;46.50;100560.00;5051576;28;20033;-63
2021/03/07 01:05:31;;;;;;;0.20;0.10;;;;;;;21.67;46.21;100574.38;5052668;28;20025;-63
2021/03/07 01:07:56;;;;;;;0.17;0.00;;;;;;;21.66;46.23;100560.84;5055234;28;20021;-63
2021/03/07 01:10:38;;;;;;;0.10;0.00;;;;;;;21.66;45.77;100560.84;5055262;28;20043;-63
2021/03/07 01:13:07;;;;;;;0.32;0.10;;;;;;;21.63;45.62;100559.38;5039312;28;20053;-63
2021/03/07 01:15:32;;;;;;;0.10;0.00;;;;;;;21.61;45.25;100581.47;5055241;28;20036;-63
2021/03/07 01:17:58;;;;;;;0.45;0.25;;;;;;;21.61;45.45;100586.94;5055274;28;20025;-63
2021/03/07 01:20:23;;;;;;;0.22;0.13;;;;;;;21.60;45.54;100582.50;5055024;28;20051;-63
2021/03/07 01:22:49;;;;;;;0.20;0.00;;;;;;;21.60;45.12;100579.75;5054940;28;20025;-63
2021/03/07 01:25:17;;;;;;;0.00;0.00;;;;;;;21.61;44.88;100588.81;5055008;28;20033;-63
2021/03/07 01:27:43;;;;;;;0.28;0.13;;;;;;;21.60;44.95;100581.66;5054939;28;20025;-63
2021/03/07 01:30:09;;;;;;;0.63;0.32;;;;;;;21.61;45.17;100586.09;5054866;28;20039;-63
2021/03/07 01:32:36;;;;;;;0.10;0.10;;;;;;;21.55;44.84;100584.16;5054896;28;20396;-63
2021/03/07 01:35:02;;;;;;;0.00;0.00;;;;;;;21.57;44.72;100590.28;5054535;28;20025;-63
2021/03/07 01:37:27;;;;;;;0.73;0.10;;;;;;;21.56;44.64;100594.91;5054573;28;20033;-63
2021/03/07 01:39:53;;;;;;;0.13;0.10;;;;;;;21.54;44.88;100577.84;5054329;28;20056;-64
2021/03/07 01:42:19;;;;;;;0.30;0.10;;;;;;;21.56;44.45;100583.94;5054561;28;20049;-62
2021/03/07 01:44:45;;;;;;;0.20;0.00;;;;;;;21.53;44.77;100567.09;5054606;28;20032;-63
2021/03/07 01:47:10;;;;;;;0.25;0.10;;;;;;;21.56;44.76;100566.69;5054470;28;20101;-62
2021/03/07 01:49:35;;;;;;;0.28;0.10;;;;;;;21.53;44.30;100558.91;5054648;28;20383;-63
2021/03/07 01:52:01;;;;;;;0.15;0.03;;;;;;;21.53;44.75;100561.63;5054355;28;20033;-63
2021/03/07 01:54:26;;;;;;;0.35;0.00;;;;;;;21.52;44.58;100544.38;5054426;28;20025;-62
2021/03/07 01:56:53;;;;;;;0.10;0.10;;;;;;;21.52;44.84;100549.84;5054276;28;20079;-63
2021/03/07 01:59:22;;;;;;;0.52;0.00;;;;;;;21.50;44.72;100553.78;5054692;28;20397;-63
2021/03/07 02:01:49;;;;;;;0.00;0.00;;;;;;;21.52;44.63;100532.59;5052938;28;20028;-63
2021/03/07 02:04:14;;;;;;;0.10;0.03;;;;;;;21.52;44.11;100546.25;5054365;28;20017;-63
2021/03/07 02:06:39;;;;;;;0.28;0.00;;;;;;;21.52;44.58;100535.31;5053853;28;20029;-63
2021/03/07 02:09:05;;;;;;;0.10;0.00;;;;;;;21.49;44.58;100535.69;5053824;28;20074;-63
2021/03/07 02:11:32;;;;;;;0.17;0.00;;;;;;;21.49;44.25;100527.50;5053935;28;20035;-63
2021/03/07 02:13:58;;;;;;;0.22;0.10;;;;;;;21.49;44.05;100522.03;5052589;28;20366;-63
2021/03/07 02:16:25;;;;;;;0.00;0.00;;;;;;;21.49;44.76;100511.09;5053990;28;20025;-62
2021/03/07 02:18:52;;;;;;;0.17;0.03;;;;;;;21.48;44.63;100515.72;5053841;28;20029;-63
2021/03/07 02:21:34;;;;;;;0.00;0.00;;;;;;;21.48;45.35;100503.94;5054024;28;20049;-63
2021/03/07 02:24:05;;;;;;;0.15;0.00;;;;;;;21.47;44.55;100507.72;5053730;28;20131;-63
2021/03/07 02:26:33;;;;;;;0.00;0.00;;;;;;;21.47;44.19;100499.50;5053920;28;20025;-63
2021/03/07 02:28:59;;;;;;;0.00;0.00;;;;;;;21.48;44.07;100509.41;5053646;28;20446;-63
2021/03/07 02:31:26;;;;;;;0.70;0.00;;;;;;;21.46;43.84;100504.13;5052278;28;20025;-63
2021/03/07 02:34:00;;;;;;;0.17;0.00;;;;;;;21.45;43.86;100488.75;5053411;28;20059;-62
2021/03/07 02:36:32;;;;;;;0.13;0.10;;;;;;;21.47;43.54;100502.25;5053739;28;20036;-64
2021/03/07 02:39:00;;;;;;;0.10;0.10;;;;;;;21.47;44.27;100504.97;5053465;28;20048;-63
2021/03/07 02:41:29;;;;;;;0.20;0.10;;;;;;;21.45;44.76;100498.88;5053459;28;20032;-63
2021/03/07 02:43:56;;;;;;;0.10;0.10;;;;;;;21.45;44.63;100499.72;5053402;28;20407;-63
2021/03/07 02:46:24;;;;;;;0.00;0.00;;;;;;;21.45;45.30;100498.88;5053471;28;20029;-64
2021/03/07 02:48:55;;;;;;;0.00;0.00;;;;;;;21.45;45.75;100493.41;5053351;28;20108;-63
2021/03/07 02:51:24;;;;;;;0.10;0.10;;;;;;;21.45;45.86;100496.13;5053381;28;20074;-63
2021/03/07 02:53:50;;;;;;;0.10;0.00;;;;;;;21.44;46.32;100497.19;5053122;28;20025;-63
2021/03/07 02:56:17;;;;;;;0.17;0.10;;;;;;;21.47;46.73;100510.44;5053921;28;20017;-63
2021/03/07 02:58:43;;;;;;;0.03;0.00;;;;;;;21.45;46.81;100498.88;5053208;28;20033;-63
2021/03/07 03:01:11;;;;;;;0.00;0.00;;;;;;;21.44;46.69;100497.19;5052552;28;20043;-63
2021/03/07 03:03:46;;;;;;;0.03;0.03;;;;;;;21.45;46.84;100507.91;5052038;28;20028;-63
2021/03/07 03:06:14;;;;;;;0.13;0.10;;;;;;;21.46;47.04;100511.50;5051770;28;20479;-63
2021/03/07 03:08:45;;;;;;;0.03;0.00;;;;;;;21.46;47.91;100508.75;5053071;28;20025;-62
2021/03/07 03:11:12;;;;;;;0.10;0.00;;;;;;;21.42;47.15;100502.00;5052849;28;20029;-63
2021/03/07 03:13:38;;;;;;;0.08;0.00;;;;;;;21.45;46.99;100510.66;5053078;28;20029;-63
2021/03/07 03:16:05;;;;;;;0.00;0.00;;;;;;;21.44;46.86;100514.44;5052760;28;20024;-63
2021/03/07 03:18:32;;;;;;;0.00;0.00;;;;;;;21.45;46.77;100509.81;5052937;28;20056;-63
2021/03/07 03:21:08;;;;;;;0.10;0.10;;;;;;;21.45;46.68;100516.13;5052722;28;20021;-63
2021/03/07 03:23:34;;;;;;;0.00;0.00;;;;;;;21.44;46.32;100519.91;5052957;28;20025;-63
2021/03/07 03:26:00;;;;;;;0.10;0.00;;;;;;;21.43;46.26;100523.69;5052617;28;20464;-63
2021/03/07 03:28:25;;;;;;;0.00;0.00;;;;;;;21.44;46.37;100522.63;5052278;28;20516;-64
2021/03/07 03:30:52;;;;;;;0.00;0.00;;;;;;;21.43;46.03;100511.91;5052095;28;20031;-63
2021/03/07 03:33:17;;;;;;;0.00;0.00;;;;;;;21.44;45.97;100513.59;5052158;28;20073;-63
2021/03/07 03:35:43;;;;;;;0.05;0.00;;;;;;;21.41;46.02;100514.84;5051236;28;20495;-64
2021/03/07 03:38:08;;;;;;;0.00;0.00;;;;;;;21.43;45.54;100510.00;5052520;28;20029;-63
2021/03/07 03:40:34;;;;;;;0.13;0.00;;;;;;;21.42;45.49;100504.75;5052592;28;20064;-64
2021/03/07 03:43:08;;;;;;;0.00;0.00;;;;;;;21.41;46.96;100514.00;5052239;28;20103;-63
2021/03/07 03:45:36;;;;;;;0.20;0.03;;;;;;;21.41;44.97;100505.78;5052545;28;20452;-63
2021/03/07 03:48:06;;;;;;;0.03;0.03;;;;;;;21.39;45.25;100516.94;5052269;28;20037;-63
2021/03/07 03:50:35;;;;;;;0.00;0.00;;;;;;;21.42;44.96;100507.47;5052416;28;20460;-63
2021/03/07 03:53:02;;;;;;;0.00;0.00;;;;;;;21.40;44.99;100501.34;5052145;28;20021;-63
2021/03/07 03:55:30;;;;;;;0.28;0.10;;;;;;;21.40;45.12;100493.16;5052496;28;20059;-63
2021/03/07 03:57:57;;;;;;;0.17;0.15;;;;;;;21.39;45.48;100488.72;5052214;28;20036;-63
2021/03/07 04:00:26;;;;;;;0.10;0.00;;;;;;;21.42;45.01;100493.78;5051951;28;20124;-63
2021/03/07 04:02:54;;;;;;;0.20;0.10;;;;;;;21.39;45.49;100477.78;5052110;28;20071;-63
2021/03/07 04:05:21;;;;;;;0.13;0.08;;;;;;;21.40;45.46;100490.41;5052291;28;20540;-63
2021/03/07 04:07:47;;;;;;;0.10;0.00;;;;;;;21.39;46.06;100488.72;5050972;28;20076;-63
2021/03/07 04:10:15;;;;;;;0.15;0.00;;;;;;;21.39;45.94;100496.94;5052244;28;20053;-63
2021/03/07 04:12:41;;;;;;;0.10;0.00;;;;;;;21.37;45.50;100501.75;5052532;28;20349;-63
2021/03/07 04:15:08;;;;;;;0.47;0.00;;;;;;;21.35;45.41;100492.91;5052265;28;20021;-63
2021/03/07 04:17:35;;;;;;;0.00;0.00;;;;;;;21.39;45.12;100496.94;5052339;28;20020;-63
2021/03/07 04:20:02;;;;;;;0.10;0.10;;;;;;;21.38;45.09;100503.44;5052039;28;20387;-63
2021/03/07 04:22:27;;;;;;;0.20;0.00;;;;;;;21.36;45.48;100500.06;5050684;28;20048;-63
2021/03/07 04:24:53;;;;;;;0.10;0.00;;;;;;;21.38;45.37;100503.44;5052017;28;20464;-63
2021/03/07 04:27:19;;;;;;;0.35;0.10;;;;;;;21.37;45.34;100504.50;5052165;28;20523;-63
2021/03/07 04:29:45;;;;;;;0.00;0.00;;;;;;;21.37;44.95;100504.50;5052105;28;20021;-63
2021/03/07 04:32:12;;;;;;;0.20;0.00;;;;;;;21.38;45.12;100508.91;5051822;28;20025;-63
2021/03/07 04:34:38;;;;;;;0.00;0.00;;;;;;;21.34;45.08;100502.16;5052038;28;20029;-63
2021/03/07 04:37:04;;;;;;;0.10;0.00;;;;;;;21.35;45.14;100510.16;5051810;28;20020;-63
2021/03/07 04:39:30;;;;;;;0.00;0.00;;;;;;;21.35;45.14;100503.84;5052111;28;20035;-63
2021/03/07 04:41:56;;;;;;;0.20;0.10;;;;;;;21.36;45.00;100500.06;5055080;28;20079;-63
2021/03/07 04:44:21;;;;;;;0.10;0.10;;;;;;;21.35;45.43;100503.84;5055812;28;20025;-63
2021/03/07 04:46:47;;;;;;;0.22;0.10;;;;;;;21.36;45.27;100508.28;5055707;28;20442;-63
2021/03/07 04:49:12;;;;;;;0.10;0.00;;;;;;;21.34;45.30;100502.16;5055611;28;20074;-63
2021/03/07 04:51:37;;;;;;;0.00;0.00;;;;;;;21.34;44.71;100491.22;5055812;28;20441;-63
2021/03/07 04:54:03;;;;;;;0.00;0.00;;;;;;;21.35;44.71;100503.84;5054148;28;20031;-63
2021/03/07 04:56:30;;;;;;;0.10;0.00;;;;;;;21.33;45.47;100495.81;5055555;28;20039;-63
2021/03/07 04:58:56;;;;;;;0.17;0.00;;;;;;;21.34;45.31;100491.22;5055412;28;20156;-63
2021/03/07 05:01:21;;;;;;;0.00;0.00;;;;;;;21.31;46.69;100504.22;5053885;28;20453;-63
2021/03/07 05:03:47;;;;;;;0.00;0.00;;;;;;;21.34;46.43;100503.00;5054918;28;20021;-63
2021/03/07 05:06:12;;;;;;;0.05;0.05;;;;;;;21.35;46.64;100493.75;5055423;28;20032;-63
2021/03/07 05:08:38;;;;;;;0.10;0.00;;;;;;;21.44;46.92;100498.03;5055348;28;20029;-63
2021/03/07 05:11:04;;;;;;;0.20;0.10;;;;;;;21.53;46.61;100501.47;5055339;28;20028;-63
2021/03/07 05:13:29;;;;;;;0.00;0.00;;;;;;;21.60;46.71;100500.44;5055308;28;20028;-63
2021/03/07 05:15:55;;;;;;;0.10;0.10;;;;;;;21.69;47.12;100490.19;5055053;28;20071;-63
2021/03/07 05:18:20;;;;;;;0.20;0.00;;;;;;;21.75;47.06;100494.84;5055221;28;20021;-63
2021/03/07 05:20:45;;;;;;;0.00;0.00;;;;;;;21.78;47.18;100490.88;5055126;28;20086;-63
2021/03/07 05:23:12;;;;;;;0.20;0.00;;;;;;;21.77;47.21;100490.00;5054972;28;20021;-63
2021/03/07 05:25:37;;;;;;;0.20;0.00;;;;;;;21.82;46.89;100495.72;5055180;28;20036;-63
2021/03/07 05:28:03;;;;;;;0.20;0.00;;;;;;;21.83;47.26;100491.94;5054826;28;20029;-63
2021/03/07 05:30:28;;;;;;;0.08;0.00;;;;;;;21.80;47.36;100495.06;5054756;28;20070;-64
2021/03/07 05:32:53;;;;;;;0.03;0.00;;;;;;;21.81;47.32;100499.50;5054808;28;20524;-63
2021/03/07 05:35:20;;;;;;;0.85;0.45;;;;;;;21.81;47.37;100496.75;5054786;28;20029;-63
2021/03/07 05:37:47;;;;;;;0.73;0.13;;;;;;;21.80;46.67;100496.97;5054807;28;20376;-63
2021/03/07 05:40:12;;;;;;;0.00;0.00;;;;;;;21.80;47.05;100508.75;5054806;28;20072;-63
2021/03/07 05:42:38;;;;;;;0.47;0.10;;;;;;;21.82;46.39;100495.72;5054571;28;20040;-63
2021/03/07 05:45:03;;;;;;;0.00;0.00;;;;;;;21.82;46.36;100498.44;5054482;28;20043;-63
2021/03/07 05:47:29;;;;;;;0.00;0.00;;;;;;;21.84;46.13;100493.66;5054725;28;20077;-63
2021/03/07 05:49:55;;;;;;;0.00;0.00;;;;;;;21.86;45.80;100499.75;5054445;28;20036;-63
2021/03/07 05:52:24;;;;;;;0.10;0.00;;;;;;;21.90;45.85;100492.81;5054077;28;20139;-64
2021/03/07 05:54:53;;;;;;;0.00;0.00;;;;;;;21.86;45.36;100505.22;5054340;28;20074;-63
2021/03/07 05:57:23;;;;;;;0.32;0.00;;;;;;;21.88;45.44;100505.88;5054504;28;20037;-63
2021/03/07 05:59:49;;;;;;;0.20;0.10;;;;;;;21.90;45.37;100503.78;5054021;28;20021;-63
2021/03/07 06:02:15;;;;;;;0.00;0.00;;;;;;;21.90;45.34;100509.25;5054399;28;20021;-63
2021/03/07 06:04:42;;;;;;;0.28;0.10;;;;;;;21.91;45.01;100499.16;5054277;28;20028;-63
2021/03/07 06:07:08;;;;;;;0.00;0.00;;;;;;;21.89;45.00;100512.19;5054174;28;20052;-64
2021/03/07 06:09:33;;;;;;;0.05;0.00;;;;;;;21.92;45.10;100493.47;5054326;28;20115;-64
2021/03/07 06:12:02;;;;;;;0.00;0.00;;;;;;;21.89;44.79;100506.72;5054399;28;20029;-64
2021/03/07 06:14:34;;;;;;;0.00;0.00;;;;;;;21.90;44.87;100509.25;5053786;28;20056;-63
2021/03/07 06:17:04;;;;;;;0.08;0.00;;;;;;;21.91;45.09;100505.47;5053829;28;20553;-63
2021/03/07 06:19:31;;;;;;;0.10;0.00;;;;;;;21.93;45.00;100499.78;5054176;28;20032;-63
2021/03/07 06:22:11;;;;;;;0.10;0.00;;;;;;;21.95;44.34;100499.56;5053828;28;20401;-63
2021/03/07 06:24:39;;;;;;;0.10;0.00;;;;;;;21.97;44.34;100497.47;5054003;28;20048;-63
2021/03/07 06:27:08;;;;;;;0.08;0.00;;;;;;;21.93;44.94;100503.38;5052387;28;20024;-63
2021/03/07 06:29:36;;;;;;;0.00;0.00;;;;;;;21.96;44.64;100498.53;5054000;28;20070;-64
2021/03/07 06:32:15;;;;;;;0.00;0.00;;;;;;;21.94;44.56;100487.78;5053675;28;20499;-63
2021/03/07 06:34:45;;;;;;;0.10;0.08;;;;;;;21.95;44.59;100491.38;5053630;28;20032;-64
2021/03/07 06:37:10;;;;;;;0.00;0.00;;;;;;;21.95;44.60;100491.38;5053608;28;20492;-64
2021/03/07 06:39:35;;;;;;;0.00;0.00;;;;;;;21.93;44.58;100497.88;5053748;28;20033;-64
2021/03/07 06:42:03;;;;;;;0.00;0.00;;;;;;;21.93;44.67;100497.88;5053303;28;20041;-63
2021/03/07 06:44:29;;;;;;;0.28;0.08;;;;;;;21.96;44.65;100502.09;5053258;28;20275;-64
2021/03/07 06:47:12;;;;;;;0.00;0.00;;;;;;;21.93;44.54;100502.53;5053428;28;20056;-63
2021/03/07 06:49:38;;;;;;;0.00;0.00;;;;;;;21.97;44.58;100501.06;5053555;28;20028;-63
2021/03/07 06:52:18;;;;;;;0.00;0.00;;;;;;;21.99;44.50;100500.84;5053228;28;20232;-64
2021/03/07 06:55:04;;;;;;;0.20;0.05;;;;;;;21.97;44.32;100506.53;5053266;28;20029;-63
2021/03/07 06:57:29;;;;;;;0.00;0.00;;;;;;;21.97;44.45;100511.16;5053371;28;20070;-63
2021/03/07 06:59:55;;;;;;;0.20;0.08;;;;;;;21.98;44.31;100521.06;5053122;28;20025;-63
2021/03/07 07:02:20;;;;;;;0.00;0.00;;;;;;;21.98;44.28;100532.00;5052901;28;20467;-63
2021/03/07 07:04:46;;;;;;;0.00;0.00;;;;;;;21.98;44.06;100512.84;5052712;28;20029;-64
2021/03/07 07:07:13;;;;;;;0.00;0.00;;;;;;;21.97;44.17;100530.31;5053055;28;20484;-63
2021/03/07 07:09:40;;;;;;;0.00;0.00;;;;;;;21.97;44.08;100535.78;5053485;28;20025;-64
2021/03/07 07:12:23;;;;;;;0.00;0.00;;;;;;;21.98;43.81;100532.00;5052955;28;20151;-64
2021/03/07 07:14:49;;;;;;;0.20;0.00;;;;;;;21.96;43.78;100528.63;5051970;28;20033;-63
2021/03/07 07:17:17;;;;;;;0.05;0.05;;;;;;;21.98;43.50;100532.00;5052720;28;20034;-64
2021/03/07 07:19:43;;;;;;;0.00;0.00;;;;;;;21.99;43.56;100544.66;5052901;28;20025;-64
2021/03/07 07:22:13;;;;;;;0.15;0.00;;;;;;;21.99;44.03;100544.66;5053095;28;20039;-64
2021/03/07 07:24:40;;;;;;;0.20;0.00;;;;;;;22.01;44.68;100557.09;5052900;28;20079;-64
2021/03/07 07:27:06;;;;;;;0.00;0.00;;;;;;;22.03;44.63;100555.00;5052844;28;20032;-64
2021/03/07 07:29:36;;;;;;;0.00;0.00;;;;;;;22.03;45.06;100545.97;5052955;28;20017;-63
2021/03/07 07:32:27;;;;;;;0.00;0.00;;;;;;;22.02;45.64;100571.63;5052642;28;20457;-63
2021/03/07 07:35:08;;;;;;;0.10;0.03;;;;;;;22.02;45.74;100577.13;5052349;28;20028;-63
2021/03/07 07:37:44;;;;;;;0.10;0.00;;;;;;;22.02;46.37;100577.13;5052778;28;20107;-64
2021/03/07 07:40:10;;;;;;;0.00;0.00;;;;;;;22.03;46.43;100567.84;5052558;28;20032;-64
2021/03/07 07:42:36;;;;;;;0.00;0.00;;;;;;;21.99;46.58;100577.50;5052150;28;20045;-64
2021/03/07 07:45:13;;;;;;;0.10;0.00;;;;;;;22.02;46.93;100566.16;5052366;28;20365;-63
2021/03/07 07:47:42;;;;;;;0.00;0.00;;;;;;;22.03;46.51;100573.31;5052592;28;20108;-63
2021/03/07 07:50:37;;;;;;;0.10;0.05;;;;;;;22.03;46.48;100562.38;5052423;28;20033;-63
2021/03/07 07:53:12;;;;;;;0.30;0.00;;;;;;;22.02;46.37;100580.69;5052249;28;20029;-63
2021/03/07 07:55:58;;;;;;;0.00;0.00;;;;;;;22.03;47.08;100581.53;5051293;28;20033;-63
2021/03/07 07:58:36;;;;;;;0.00;0.00;;;;;;;22.03;47.00;100573.31;5052433;28;20083;-64
2021/03/07 08:01:06;;;;;;;0.03;0.00;;;;;;;22.04;46.54;100575.00;5052162;28;20051;-64
2021/03/07 08:03:44;;;;;;;0.00;0.00;;;;;;;22.03;46.72;100584.28;5052424;28;20028;-64
2021/03/07 08:06:35;;;;;;;0.00;0.00;;;;;;;22.01;46.05;100602.78;5052352;28;20060;-64
2021/03/07 08:09:01;;;;;;;0.03;0.00;;;;;;;22.00;45.96;100592.88;5052092;28;20376;-64
2021/03/07 08:11:29;;;;;;;0.00;0.00;;;;;;;22.03;45.68;100600.69;5052357;28;20121;-64
2021/03/07 08:13:58;;;;;;;0.00;0.00;;;;;;;22.01;45.94;100602.78;5050578;28;20431;-64
2021/03/07 08:16:43;;;;;;;0.00;0.00;;;;;;;22.02;45.86;100605.34;5056328;28;20060;-64
2021/03/07 08:19:10;;;;;;;0.10;0.00;;;;;;;22.04;45.33;100614.19;5056240;28;20032;-63
2021/03/07 08:21:54;;;;;;;0.00;0.00;;;;;;;22.00;45.44;100612.88;5056381;28;20047;-64
2021/03/07 08:24:19;;;;;;;0.20;0.10;;;;;;;22.03;44.72;100611.66;5056196;28;20139;-63
2021/03/07 08:26:45;;;;;;;0.10;0.00;;;;;;;22.02;44.85;100626.38;5056162;28;20108;-64
2021/03/07 08:29:42;;;;;;;0.00;0.00;;;;;;;22.00;44.66;100625.72;5055993;28;20107;-64
2021/03/07 08:32:30;;;;;;;0.00;0.00;;;;;;;22.03;44.41;100623.44;5056024;28;20250;-63
2021/03/07 08:34:58;;;;;;;0.00;0.00;;;;;;;22.01;44.51;100621.97;5054534;28;20222;-63
2021/03/07 08:37:23;;;;;;;0.00;0.00;;;;;;;22.05;44.75;100626.00;5055964;28;20057;-64
2021/03/07 08:40:27;;;;;;;0.13;0.00;;;;;;;22.06;44.44;100617.59;5055821;28;20108;-63
2021/03/07 08:42:54;;;;;;;0.00;0.00;;;;;;;22.05;44.63;100631.47;5055236;28;20090;-63
2021/03/07 08:45:20;;;;;;;0.10;0.00;;;;;;;22.05;44.38;100636.97;5055374;28;20481;-63
2021/03/07 08:47:59;;;;;;;0.00;0.00;;;;;;;22.01;44.81;100644.69;5055825;28;20029;-64
2021/03/07 08:50:26;;;;;;;0.00;0.00;;;;;;;22.03;44.40;100652.72;5055772;28;20052;-64
2021/03/07 08:52:53;;;;;;;0.13;0.05;;;;;;;22.01;44.14;100650.16;5055469;28;20028;-64
2021/03/07 08:55:19;;;;;;;0.00;0.00;;;;;;;22.01;44.39;100654.81;5055587;28;20436;-64
2021/03/07 08:57:46;;;;;;;0.00;0.00;;;;;;;22.05;44.03;100672.53;5055530;28;20033;-63
2021/03/07 09:00:14;;;;;;;0.10;0.00;;;;;;;22.04;44.25;100657.13;5055487;28;20024;-64
2021/03/07 09:02:39;;;;;;;0.00;0.00;;;;;;;22.07;44.58;100665.81;5055489;28;20055;-64
2021/03/07 09:05:08;;;;;;;0.00;0.00;;;;;;;22.09;44.64;100665.63;5053928;28;20456;-64
2021/03/07 09:07:33;;;;;;;0.15;0.00;;;;;;;22.06;44.38;100682.44;5054319;28;20020;-64
2021/03/07 09:09:58;;;;;;;0.00;0.00;;;;;;;22.03;44.43;100689.13;5055261;28;20029;-64
2021/03/07 09:12:24;;;;;;;0.10;0.00;;;;;;;22.02;43.84;100681.13;5053741;28;20029;-64
2021/03/07 09:14:49;;;;;;;0.00;0.00;;;;;;;21.99;44.18;100687.81;5055095;28;20086;-64
2021/03/07 09:17:22;;;;;;;0.00;0.00;;;;;;;22.07;44.52;100686.88;5055480;28;20040;-64
2021/03/07 09:19:48;;;;;;;0.00;0.00;;;;;;;22.07;44.38;100697.81;5055201;28;20029;-64
2021/03/07 09:22:28;;;;;;;0.00;0.00;;;;;;;22.05;44.18;100714.44;5055217;28;20025;-64
2021/03/07 09:24:58;;;;;;;0.10;0.00;;;;;;;22.06;44.17;100699.72;5053661;28;20017;-63
2021/03/07 09:27:26;;;;;;;0.00;0.00;;;;;;;22.05;44.13;100714.44;5054237;28;20071;-63
2021/03/07 09:29:58;;;;;;;0.20;0.00;;;;;;;22.06;44.05;100698.88;5054863;28;20051;-63
2021/03/07 09:32:25;;;;;;;0.00;0.00;;;;;;;22.06;44.59;100713.41;5054984;28;20063;-64
2021/03/07 09:34:50;;;;;;;0.00;0.00;;;;;;;22.06;44.44;100709.81;5054692;28;20067;-63
2021/03/07 09:37:16;;;;;;;0.00;0.00;;;;;;;22.04;43.82;100717.34;5055138;28;20025;-63
2021/03/07 09:39:49;;;;;;;0.00;0.00;;;;;;;22.05;43.82;100730.88;5054890;28;20033;-64
2021/03/07 09:42:16;;;;;;;0.00;0.00;;;;;;;22.06;43.56;100727.09;5054469;28;20037;-64
2021/03/07 09:44:42;;;;;;;0.00;0.00;;;;;;;22.07;43.28;100738.88;5054697;28;20387;-63
2021/03/07 09:47:07;;;;;;;0.00;0.00;;;;;;;22.05;43.42;100738.25;5054463;28;20029;-63
2021/03/07 09:49:33;;;;;;;0.00;0.00;;;;;;;22.10;43.98;100735.75;5054762;28;20044;-64
2021/03/07 09:51:59;;;;;;;0.15;0.00;;;;;;;22.08;44.14;100746.91;5054169;28;20120;-64
2021/03/07 09:54:25;;;;;;;0.10;0.00;;;;;;;22.09;44.41;100747.75;5054487;28;20044;-64
2021/03/07 09:56:52;;;;;;;0.00;0.00;;;;;;;22.08;44.86;100754.28;5054403;28;20131;-64
2021/03/07 09:59:26;;;;;;;0.10;0.10;;;;;;;22.09;45.06;100745.00;5054531;28;20107;-64
2021/03/07 10:01:57;;;;;;;0.00;0.00;;;;;;;22.07;45.98;100758.06;5054206;28;20368;-64
2021/03/07 10:04:36;;;;;;;0.05;0.00;;;;;;;22.08;45.92;100767.94;5054396;28;20045;-64
2021/03/07 10:07:20;;;;;;;0.00;0.00;;;;;;;22.11;46.29;100762.06;5054155;28;20052;-64
2021/03/07 10:10:06;;;;;;;0.00;0.00;;;;;;;22.12;46.44;100753.66;5034943;28;20400;-64
2021/03/07 10:12:56;;;;;;;0.00;0.00;;;;;;;22.08;46.48;100757.84;5040289;28;20448;-64
2021/03/07 10:15:29;;;;;;;0.00;0.00;;;;;;;22.08;46.89;100768.81;5054095;28;20104;-63
2021/03/07 10:18:19;;;;;;;0.00;0.00;;;;;;;22.06;46.83;100754.47;5053962;28;20029;-63
2021/03/07 10:20:48;;;;;;;0.00;0.00;;;;;;;22.07;46.97;100777.22;5053995;28;20044;-63
2021/03/07 10:23:13;;;;;;;0.00;0.00;;;;;;;22.09;46.79;100797.03;5053935;28;20028;-64
2021/03/07 10:25:41;;;;;;;0.17;0.17;;;;;;;22.10;46.65;100793.25;5054078;28;20028;-63
2021/03/07 10:28:18;;;;;;;0.00;0.00;;;;;;;22.11;46.67;100800.41;5052564;28;20024;-64
2021/03/07 10:30:44;;;;;;;0.08;0.00;;;;;;;22.10;46.41;100815.13;5053780;28;20025;-64
2021/03/07 10:33:11;;;;;;;0.17;0.00;;;;;;;22.11;46.24;100822.31;5053962;28;20032;-63
2021/03/07 10:35:38;;;;;;;0.10;0.05;;;;;;;22.08;46.16;100803.53;5053818;28;20411;-63
2021/03/07 10:38:03;;;;;;;0.00;0.00;;;;;;;22.07;46.07;100805.44;5053597;28;20376;-64
2021/03/07 10:40:34;;;;;;;0.22;0.10;;;;;;;22.10;46.18;100826.09;5053707;28;20031;-63
2021/03/07 10:43:04;;;;;;;0.00;0.00;;;;;;;22.09;45.56;100835.34;5053024;28;20312;-64
2021/03/07 10:45:30;;;;;;;0.00;0.00;;;;;;;22.08;45.83;100822.72;5053229;28;20035;-63
2021/03/07 10:48:03;;;;;;;0.10;0.10;;;;;;;22.09;45.74;100829.88;5053386;28;20112;-64
2021/03/07 10:50:29;;;;;;;0.10;0.10;;;;;;;22.08;44.99;100834.50;5053528;28;20035;-64
2021/03/07 10:52:55;;;;;;;0.00;0.00;;;;;;;22.08;45.39;100861.03;5053304;28;20100;-64
2021/03/07 10:55:21;;;;;;;0.10;0.05;;;;;;;22.06;45.10;100854.91;5051960;28;20020;-63
2021/03/07 10:57:46;;;;;;;0.10;0.05;;;;;;;22.10;44.90;100856.22;5053335;28;20490;-64
2021/03/07 11:00:12;;;;;;;0.10;0.00;;;;;;;22.10;44.81;100869.91;5053249;28;20414;-64
2021/03/07 11:02:38;;;;;;;0.00;0.00;;;;;;;22.09;44.63;100869.06;5051996;28;20495;-64
2021/03/07 11:05:04;;;;;;;0.00;0.00;;;;;;;22.10;44.60;100869.91;5052991;28;20393;-64
2021/03/07 11:07:29;;;;;;;0.25;0.00;;;;;;;22.10;44.59;100873.47;5053207;28;20518;-64
2021/03/07 11:09:55;;;;;;;0.00;0.00;;;;;;;22.07;44.41;100873.03;5052983;28;20028;-64
2021/03/07 11:12:20;;;;;;;0.00;0.00;;;;;;;22.11;44.52;100871.59;5052567;28;20472;-64
2021/03/07 11:14:45;;;;;;;0.00;0.00;;;;;;;22.12;44.71;100889.72;5053001;28;20048;-64
2021/03/07 11:17:11;;;;;;;0.00;0.00;;;;;;;22.12;44.34;100889.72;5052796;28;20033;-64
2021/03/07 11:19:36;;;;;;;0.00;0.00;;;;;;;22.10;44.34;100902.75;5053107;28;20502;-64
2021/03/07 11:22:03;;;;;;;0.00;0.00;;;;;;;22.05;44.18;100886.06;5052739;28;20403;-64
2021/03/07 11:24:28;;;;;;;0.00;0.00;;;;;;;22.07;44.39;100894.94;5052891;28;20072;-64
2021/03/07 11:26:54;;;;;;;0.05;0.05;;;;;;;22.09;44.49;100906.53;5052656;28;20056;-63
2021/03/07 11:29:20;;;;;;;0.00;0.00;;;;;;;22.08;44.02;100885.69;5052794;28;20032;-64
2021/03/07 11:31:46;;;;;;;0.10;0.00;;;;;;;22.08;44.39;100904.84;5052809;28;20510;-64